sensor_id;sensor_type;location;lat;lon;timestamp;pressure;altitude;pressure_sealevel;temperature;humidity
15817;BME280;8009;50.070;8.232;2022-10-28T00:01:28;100653.50;;;13.56;93.62
15817;BME280;8009;50.070;8.232;2022-10-28T00:03:57;100658.16;;;13.54;94.09
15817;BME280;8009;50.070;8.232;2022-10-28T00:06:30;100663.25;;;13.58;93.96
15817;BME280;8009;50.070;8.232;2022-10-28T00:08:59;100655.72;;;13.62;93.54
15817;BME280;8009;50.070;8.232;2022-10-28T00:11:32;100662.88;;;13.52;94.20
15817;BME280;8009;50.070;8.232;2022-10-28T00:14:03;100660.13;;;13.40;94.36
15817;BME280;8009;50.070;8.232;2022-10-28T00:16:33;100653.56;;;13.43;94.54
15817;BME280;8009;50.070;8.232;2022-10-28T00:19:04;100656.91;;;13.47;94.17
15817;BME280;8009;50.070;8.232;2022-10-28T00:21:34;100663.50;;;13.55;94.46
15817;BME280;8009;50.070;8.232;2022-10-28T00:24:06;100651.38;;;13.48;94.77
15817;BME280;8009;50.070;8.232;2022-10-28T00:26:39;100658.06;;;13.55;94.41
15817;BME280;8009;50.070;8.232;2022-10-28T00:29:09;100668.53;;;13.49;94.49
15817;BME280;8009;50.070;8.232;2022-10-28T00:31:39;100666.94;;;13.57;94.25
15817;BME280;8009;50.070;8.232;2022-10-28T00:34:10;100669.28;;;13.51;94.23
15817;BME280;8009;50.070;8.232;2022-10-28T00:36:43;100670.38;;;13.48;94.61
15817;BME280;8009;50.070;8.232;2022-10-28T00:39:13;100667.28;;;13.53;94.49
15817;BME280;8009;50.070;8.232;2022-10-28T00:41:46;100667.88;;;13.45;95.10
15817;BME280;8009;50.070;8.232;2022-10-28T00:47:26;100665.84;;;13.60;94.61
15817;BME280;8009;50.070;8.232;2022-10-28T00:50:02;100663.00;;;13.61;94.72
15817;BME280;8009;50.070;8.232;2022-10-28T00:52:33;100669.06;;;13.65;94.53
15817;BME280;8009;50.070;8.232;2022-10-28T00:55:02;100648.34;;;13.64;94.22
15817;BME280;8009;50.070;8.232;2022-10-28T00:57:35;100650.88;;;13.54;94.88
15817;BME280;8009;50.070;8.232;2022-10-28T01:00:06;100645.13;;;13.59;95.07
15817;BME280;8009;50.070;8.232;2022-10-28T01:02:40;100632.81;;;13.66;94.79
15817;BME280;8009;50.070;8.232;2022-10-28T01:05:11;100643.91;;;13.63;94.71
15817;BME280;8009;50.070;8.232;2022-10-28T01:07:40;100651.06;;;13.64;94.83
15817;BME280;8009;50.070;8.232;2022-10-28T01:10:10;100655.47;;;13.65;94.77
15817;BME280;8009;50.070;8.232;2022-10-28T01:12:51;100650.91;;;13.65;94.86
15817;BME280;8009;50.070;8.232;2022-10-28T01:15:32;100648.97;;;13.68;94.49
15817;BME280;8009;50.070;8.232;2022-10-28T01:18:12;100641.06;;;13.76;94.17
15817;BME280;8009;50.070;8.232;2022-10-28T01:23:51;100660.69;;;13.68;94.72
15817;BME280;8009;50.070;8.232;2022-10-28T01:26:30;100654.53;;;13.66;95.04
15817;BME280;8009;50.070;8.232;2022-10-28T01:29:29;100650.31;;;13.73;94.87
15817;BME280;8009;50.070;8.232;2022-10-28T01:32:09;100652.16;;;13.73;94.64
15817;BME280;8009;50.070;8.232;2022-10-28T01:34:49;100645.03;;;13.72;94.64
15817;BME280;8009;50.070;8.232;2022-10-28T01:37:28;100641.53;;;13.70;94.79
15817;BME280;8009;50.070;8.232;2022-10-28T01:40:04;100637.00;;;13.70;94.58
15817;BME280;8009;50.070;8.232;2022-10-28T01:42:39;100632.31;;;13.72;94.99
15817;BME280;8009;50.070;8.232;2022-10-28T01:45:13;100632.94;;;13.76;94.66
15817;BME280;8009;50.070;8.232;2022-10-28T01:47:52;100632.19;;;13.85;94.32
15817;BME280;8009;50.070;8.232;2022-10-28T01:50:27;100630.38;;;13.85;94.52
15817;BME280;8009;50.070;8.232;2022-10-28T01:53:00;100628.00;;;13.92;93.54
15817;BME280;8009;50.070;8.232;2022-10-28T01:55:34;100624.66;;;13.88;93.48
15817;BME280;8009;50.070;8.232;2022-10-28T01:58:04;100624.56;;;13.90;93.57
15817;BME280;8009;50.070;8.232;2022-10-28T02:00:35;100624.66;;;13.88;93.27
15817;BME280;8009;50.070;8.232;2022-10-28T02:03:08;100615.56;;;13.89;93.87
15817;BME280;8009;50.070;8.232;2022-10-28T02:05:40;100620.00;;;13.90;93.68
15817;BME280;8009;50.070;8.232;2022-10-28T02:08:25;100613.94;;;13.87;93.65
15817;BME280;8009;50.070;8.232;2022-10-28T02:11:18;100618.38;;;13.88;93.93
15817;BME280;8009;50.070;8.232;2022-10-28T02:13:58;100623.72;;;13.89;94.13
15817;BME280;8009;50.070;8.232;2022-10-28T02:16:38;100614.94;;;13.75;95.00
15817;BME280;8009;50.070;8.232;2022-10-28T02:19:24;100611.72;;;13.81;94.45
15817;BME280;8009;50.070;8.232;2022-10-28T02:22:04;100609.38;;;13.87;93.94
15817;BME280;8009;50.070;8.232;2022-10-28T02:24:43;100599.03;;;13.81;93.97
15817;BME280;8009;50.070;8.232;2022-10-28T02:27:19;100600.13;;;13.90;94.14
15817;BME280;8009;50.070;8.232;2022-10-28T02:29:52;100602.00;;;13.89;93.94
15817;BME280;8009;50.070;8.232;2022-10-28T02:32:25;100601.00;;;13.90;94.09
15817;BME280;8009;50.070;8.232;2022-10-28T02:34:59;100601.13;;;13.89;94.17
15817;BME280;8009;50.070;8.232;2022-10-28T02:37:31;100595.69;;;13.89;94.19
15817;BME280;8009;50.070;8.232;2022-10-28T02:40:03;100603.22;;;13.85;94.37
15817;BME280;8009;50.070;8.232;2022-10-28T02:42:35;100590.50;;;13.86;94.41
15817;BME280;8009;50.070;8.232;2022-10-28T02:45:10;100592.22;;;13.87;94.45
15817;BME280;8009;50.070;8.232;2022-10-28T02:47:44;100591.63;;;13.95;93.91
15817;BME280;8009;50.070;8.232;2022-10-28T02:50:20;100589.13;;;13.92;94.23
15817;BME280;8009;50.070;8.232;2022-10-28T02:52:54;100587.03;;;13.95;94.24
15817;BME280;8009;50.070;8.232;2022-10-28T02:55:31;100580.13;;;13.91;94.68
15817;BME280;8009;50.070;8.232;2022-10-28T02:58:00;100575.31;;;13.95;94.47
15817;BME280;8009;50.070;8.232;2022-10-28T03:00:29;100567.31;;;14.04;94.19
15817;BME280;8009;50.070;8.232;2022-10-28T03:02:57;100566.31;;;14.05;94.04
15817;BME280;8009;50.070;8.232;2022-10-28T03:05:28;100580.63;;;14.07;93.85
15817;BME280;8009;50.070;8.232;2022-10-28T03:07:56;100590.38;;;14.10;93.53
15817;BME280;8009;50.070;8.232;2022-10-28T03:10:25;100589.91;;;14.05;94.00
15817;BME280;8009;50.070;8.232;2022-10-28T03:12:53;100583.47;;;14.06;94.18
15817;BME280;8009;50.070;8.232;2022-10-28T03:15:21;100578.53;;;14.00;94.67
15817;BME280;8009;50.070;8.232;2022-10-28T03:17:50;100570.03;;;14.04;94.46
15817;BME280;8009;50.070;8.232;2022-10-28T03:20:18;100590.63;;;14.07;94.54
15817;BME280;8009;50.070;8.232;2022-10-28T03:22:49;100582.84;;;14.02;95.39
15817;BME280;8009;50.070;8.232;2022-10-28T03:25:19;100574.31;;;14.07;94.80
15817;BME280;8009;50.070;8.232;2022-10-28T03:27:47;100578.41;;;14.12;94.84
15817;BME280;8009;50.070;8.232;2022-10-28T03:30:16;100569.63;;;14.20;94.78
15817;BME280;8009;50.070;8.232;2022-10-28T03:32:48;100558.63;;;14.22;94.33
15817;BME280;8009;50.070;8.232;2022-10-28T03:35:16;100559.88;;;14.18;94.77
15817;BME280;8009;50.070;8.232;2022-10-28T03:37:44;100587.63;;;14.32;94.05
15817;BME280;8009;50.070;8.232;2022-10-28T03:40:15;100596.03;;;14.18;94.67
15817;BME280;8009;50.070;8.232;2022-10-28T03:42:44;100590.13;;;14.24;94.30
15817;BME280;8009;50.070;8.232;2022-10-28T03:45:12;100598.13;;;14.26;94.58
15817;BME280;8009;50.070;8.232;2022-10-28T03:47:40;100600.59;;;14.29;94.57
15817;BME280;8009;50.070;8.232;2022-10-28T03:50:09;100596.28;;;14.26;94.70
15817;BME280;8009;50.070;8.232;2022-10-28T03:52:37;100605.56;;;14.35;94.50
15817;BME280;8009;50.070;8.232;2022-10-28T03:55:06;100597.13;;;14.27;94.76
15817;BME280;8009;50.070;8.232;2022-10-28T03:57:37;100591.97;;;14.35;94.35
15817;BME280;8009;50.070;8.232;2022-10-28T04:00:06;100587.78;;;14.20;95.07
15817;BME280;8009;50.070;8.232;2022-10-28T04:02:35;100582.09;;;14.23;94.96
15817;BME280;8009;50.070;8.232;2022-10-28T04:05:04;100577.16;;;14.28;94.75
15817;BME280;8009;50.070;8.232;2022-10-28T04:07:33;100566.63;;;14.34;94.25
15817;BME280;8009;50.070;8.232;2022-10-28T04:10:02;100572.94;;;14.35;94.13
15817;BME280;8009;50.070;8.232;2022-10-28T04:12:30;100569.41;;;14.23;95.08
15817;BME280;8009;50.070;8.232;2022-10-28T04:15:01;100568.38;;;14.35;94.29
15817;BME280;8009;50.070;8.232;2022-10-28T04:17:29;100568.25;;;14.37;94.31
15817;BME280;8009;50.070;8.232;2022-10-28T04:19:58;100573.91;;;14.34;95.00
15817;BME280;8009;50.070;8.232;2022-10-28T04:22:26;100567.38;;;14.36;94.67
15817;BME280;8009;50.070;8.232;2022-10-28T04:24:54;100568.25;;;14.37;94.50
15817;BME280;8009;50.070;8.232;2022-10-28T04:27:22;100573.28;;;14.42;94.39
15817;BME280;8009;50.070;8.232;2022-10-28T04:29:51;100565.28;;;14.40;94.53
15817;BME280;8009;50.070;8.232;2022-10-28T04:32:22;100565.41;;;14.38;94.67
15817;BME280;8009;50.070;8.232;2022-10-28T04:34:53;100556.66;;;14.35;94.99
15817;BME280;8009;50.070;8.232;2022-10-28T04:37:21;100556.91;;;14.32;94.74
15817;BME280;8009;50.070;8.232;2022-10-28T04:39:49;100555.03;;;14.32;94.78
15817;BME280;8009;50.070;8.232;2022-10-28T04:42:18;100557.63;;;14.34;94.83
15817;BME280;8009;50.070;8.232;2022-10-28T04:44:46;100557.53;;;14.24;95.20
15817;BME280;8009;50.070;8.232;2022-10-28T04:47:15;100557.53;;;14.24;95.34
15817;BME280;8009;50.070;8.232;2022-10-28T04:49:46;100567.78;;;14.21;95.67
15817;BME280;8009;50.070;8.232;2022-10-28T04:52:15;100553.44;;;14.19;95.82
15817;BME280;8009;50.070;8.232;2022-10-28T04:54:43;100553.44;;;14.19;95.41
15817;BME280;8009;50.070;8.232;2022-10-28T04:57:12;100554.69;;;14.03;95.74
15817;BME280;8009;50.070;8.232;2022-10-28T04:59:40;100549.88;;;14.07;95.52
15817;BME280;8009;50.070;8.232;2022-10-28T05:02:08;100541.50;;;13.99;95.91
15817;BME280;8009;50.070;8.232;2022-10-28T05:04:38;100552.38;;;13.99;95.83
15817;BME280;8009;50.070;8.232;2022-10-28T05:07:09;100543.13;;;14.01;95.69
15817;BME280;8009;50.070;8.232;2022-10-28T05:09:37;100540.41;;;14.01;95.72
15817;BME280;8009;50.070;8.232;2022-10-28T05:12:05;100542.25;;;14.01;95.78
15817;BME280;8009;50.070;8.232;2022-10-28T05:14:34;100542.97;;;14.03;95.25
15817;BME280;8009;50.070;8.232;2022-10-28T05:17:06;100543.75;;;13.94;95.80
15817;BME280;8009;50.070;8.232;2022-10-28T05:19:35;100540.53;;;13.88;95.46
15817;BME280;8009;50.070;8.232;2022-10-28T05:22:12;100534.38;;;13.86;95.43
15817;BME280;8009;50.070;8.232;2022-10-28T05:24:41;100527.56;;;13.81;95.62
15817;BME280;8009;50.070;8.232;2022-10-28T05:27:09;100537.56;;;13.80;95.61
15817;BME280;8009;50.070;8.232;2022-10-28T05:29:37;100532.97;;;14.03;95.12
15817;BME280;8009;50.070;8.232;2022-10-28T05:32:06;100536.09;;;13.87;95.67
15817;BME280;8009;50.070;8.232;2022-10-28T05:34:34;100535.22;;;13.87;95.63
15817;BME280;8009;50.070;8.232;2022-10-28T05:37:03;100531.66;;;13.75;95.87
15817;BME280;8009;50.070;8.232;2022-10-28T05:39:34;100533.75;;;13.83;96.25
15817;BME280;8009;50.070;8.232;2022-10-28T05:42:02;100537.22;;;13.74;96.11
15817;BME280;8009;50.070;8.232;2022-10-28T05:44:31;100531.53;;;13.77;96.10
15817;BME280;8009;50.070;8.232;2022-10-28T05:46:59;100525.00;;;13.79;96.22
15817;BME280;8009;50.070;8.232;2022-10-28T05:49:27;100524.13;;;13.79;96.26
15817;BME280;8009;50.070;8.232;2022-10-28T05:51:56;100520.03;;;13.84;95.83
15817;BME280;8009;50.070;8.232;2022-10-28T05:54:24;100520.78;;;13.86;96.11
15817;BME280;8009;50.070;8.232;2022-10-28T05:56:55;100540.66;;;13.87;95.81
15817;BME280;8009;50.070;8.232;2022-10-28T05:59:23;100534.59;;;13.83;96.05
15817;BME280;8009;50.070;8.232;2022-10-28T06:01:52;100538.69;;;13.78;96.36
15817;BME280;8009;50.070;8.232;2022-10-28T06:04:20;100540.19;;;13.82;96.54
15817;BME280;8009;50.070;8.232;2022-10-28T06:06:48;100545.84;;;13.79;96.34
15817;BME280;8009;50.070;8.232;2022-10-28T06:09:17;100541.50;;;13.87;96.13
15817;BME280;8009;50.070;8.232;2022-10-28T06:11:45;100540.03;;;13.83;96.21
15817;BME280;8009;50.070;8.232;2022-10-28T06:14:16;100549.41;;;13.79;96.48
15817;BME280;8009;50.070;8.232;2022-10-28T06:16:45;100548.03;;;13.85;95.89
15817;BME280;8009;50.070;8.232;2022-10-28T06:19:13;100550.53;;;13.88;95.66
15817;BME280;8009;50.070;8.232;2022-10-28T06:21:41;100556.94;;;13.87;95.61
15817;BME280;8009;50.070;8.232;2022-10-28T06:24:10;100552.50;;;13.86;95.58
15817;BME280;8009;50.070;8.232;2022-10-28T06:26:38;100563.00;;;13.90;95.44
15817;BME280;8009;50.070;8.232;2022-10-28T06:29:08;100558.41;;;13.91;95.34
15817;BME280;8009;50.070;8.232;2022-10-28T06:31:41;100564.72;;;13.92;95.45
15817;BME280;8009;50.070;8.232;2022-10-28T06:34:10;100558.41;;;13.91;95.38
15817;BME280;8009;50.070;8.232;2022-10-28T06:36:38;100552.84;;;13.93;95.13
15817;BME280;8009;50.070;8.232;2022-10-28T06:39:07;100559.50;;;14.00;94.55
15817;BME280;8009;50.070;8.232;2022-10-28T06:41:35;100560.66;;;13.97;94.83
15817;BME280;8009;50.070;8.232;2022-10-28T06:44:04;100566.19;;;13.96;95.09
15817;BME280;8009;50.070;8.232;2022-10-28T06:46:32;100567.66;;;13.88;95.43
15817;BME280;8009;50.070;8.232;2022-10-28T06:49:03;100574.94;;;13.88;95.41
15817;BME280;8009;50.070;8.232;2022-10-28T06:51:33;100566.19;;;13.96;95.21
15817;BME280;8009;50.070;8.232;2022-10-28T06:54:01;100570.03;;;13.93;95.14
15817;BME280;8009;50.070;8.232;2022-10-28T06:56:30;100565.94;;;13.99;94.89
15817;BME280;8009;50.070;8.232;2022-10-28T06:58:58;100570.38;;;14.00;94.51
15817;BME280;8009;50.070;8.232;2022-10-28T07:01:26;100572.84;;;14.03;94.55
15817;BME280;8009;50.070;8.232;2022-10-28T07:03:55;100579.75;;;14.07;94.27
15817;BME280;8009;50.070;8.232;2022-10-28T07:06:27;100575.69;;;14.01;94.75
15817;BME280;8009;50.070;8.232;2022-10-28T07:08:55;100570.50;;;14.09;94.30
15817;BME280;8009;50.070;8.232;2022-10-28T07:11:23;100582.72;;;14.15;94.11
15817;BME280;8009;50.070;8.232;2022-10-28T07:13:51;100578.13;;;14.15;94.09
15817;BME280;8009;50.070;8.232;2022-10-28T07:16:20;100582.47;;;14.18;94.03
15817;BME280;8009;50.070;8.232;2022-10-28T07:18:48;100574.09;;;13.99;95.19
15817;BME280;8009;50.070;8.232;2022-10-28T07:21:16;100576.56;;;13.90;95.73
15817;BME280;8009;50.070;8.232;2022-10-28T07:23:52;100581.00;;;14.03;95.52
15817;BME280;8009;50.070;8.232;2022-10-28T07:26:21;100582.00;;;14.13;95.15
15817;BME280;8009;50.070;8.232;2022-10-28T07:28:50;100584.31;;;14.18;94.96
15817;BME280;8009;50.070;8.232;2022-10-28T07:31:18;100582.34;;;14.20;95.40
15817;BME280;8009;50.070;8.232;2022-10-28T07:33:50;100582.56;;;14.39;94.46
15817;BME280;8009;50.070;8.232;2022-10-28T07:36:20;100577.16;;;14.39;93.87
15817;BME280;8009;50.070;8.232;2022-10-28T07:38:51;100581.19;;;14.45;93.71
15817;BME280;8009;50.070;8.232;2022-10-28T07:41:20;100580.94;;;14.48;93.82
15817;BME280;8009;50.070;8.232;2022-10-28T07:43:49;100581.19;;;14.56;93.86
15817;BME280;8009;50.070;8.232;2022-10-28T07:46:18;100571.94;;;14.58;93.49
15817;BME280;8009;50.070;8.232;2022-10-28T07:48:47;100570.69;;;14.62;93.77
15817;BME280;8009;50.070;8.232;2022-10-28T07:51:15;100585.19;;;14.84;92.35
15817;BME280;8009;50.070;8.232;2022-10-28T07:53:44;100586.78;;;14.86;92.35
15817;BME280;8009;50.070;8.232;2022-10-28T07:56:15;100593.72;;;14.79;92.90
15817;BME280;8009;50.070;8.232;2022-10-28T07:58:45;100590.16;;;14.79;93.20
15817;BME280;8009;50.070;8.232;2022-10-28T08:01:15;100595.78;;;14.87;92.54
15817;BME280;8009;50.070;8.232;2022-10-28T08:03:44;100587.44;;;14.79;92.83
15817;BME280;8009;50.070;8.232;2022-10-28T08:06:14;100590.63;;;14.84;92.49
15817;BME280;8009;50.070;8.232;2022-10-28T08:08:44;100590.97;;;14.91;92.45
15817;BME280;8009;50.070;8.232;2022-10-28T08:11:17;100589.84;;;14.93;91.87
15817;BME280;8009;50.070;8.232;2022-10-28T08:13:47;100594.75;;;14.99;91.71
15817;BME280;8009;50.070;8.232;2022-10-28T08:16:15;100595.91;;;14.97;91.91
15817;BME280;8009;50.070;8.232;2022-10-28T08:18:44;100598.72;;;14.95;91.79
15817;BME280;8009;50.070;8.232;2022-10-28T08:21:13;100602.06;;;14.99;90.79
15817;BME280;8009;50.070;8.232;2022-10-28T08:23:42;100604.00;;;15.08;90.14
15817;BME280;8009;50.070;8.232;2022-10-28T08:26:12;100597.44;;;15.10;90.06
15817;BME280;8009;50.070;8.232;2022-10-28T08:28:43;100591.88;;;15.12;89.92
15817;BME280;8009;50.070;8.232;2022-10-28T08:31:13;100607.94;;;15.15;89.96
15817;BME280;8009;50.070;8.232;2022-10-28T08:33:42;100607.41;;;15.21;88.88
15817;BME280;8009;50.070;8.232;2022-10-28T08:36:12;100608.84;;;15.25;89.88
15817;BME280;8009;50.070;8.232;2022-10-28T08:38:42;100602.91;;;15.31;88.91
15817;BME280;8009;50.070;8.232;2022-10-28T08:41:25;100604.03;;;15.29;89.67
15817;BME280;8009;50.070;8.232;2022-10-28T08:44:11;100606.69;;;15.40;88.72
15817;BME280;8009;50.070;8.232;2022-10-28T08:46:53;100605.41;;;15.44;88.91
15817;BME280;8009;50.070;8.232;2022-10-28T08:49:24;100598.97;;;15.45;88.16
15817;BME280;8009;50.070;8.232;2022-10-28T08:51:55;100594.06;;;15.39;88.92
15817;BME280;8009;50.070;8.232;2022-10-28T08:54:31;100595.38;;;15.45;88.54
15817;BME280;8009;50.070;8.232;2022-10-28T08:57:02;100595.81;;;15.61;86.35
15817;BME280;8009;50.070;8.232;2022-10-28T08:59:38;100606.06;;;15.69;87.08
15817;BME280;8009;50.070;8.232;2022-10-28T09:02:17;100597.22;;;15.76;86.40
15817;BME280;8009;50.070;8.232;2022-10-28T09:04:48;100592.78;;;15.64;87.53
15817;BME280;8009;50.070;8.232;2022-10-28T09:07:21;100593.91;;;15.73;85.86
15817;BME280;8009;50.070;8.232;2022-10-28T09:09:52;100595.78;;;15.82;85.82
15817;BME280;8009;50.070;8.232;2022-10-28T09:12:30;100588.41;;;15.94;84.98
15817;BME280;8009;50.070;8.232;2022-10-28T09:15:14;100584.66;;;15.95;84.50
15817;BME280;8009;50.070;8.232;2022-10-28T09:17:51;100595.47;;;16.06;83.31
15817;BME280;8009;50.070;8.232;2022-10-28T09:20:28;100581.75;;;16.17;83.42
15817;BME280;8009;50.070;8.232;2022-10-28T09:23:04;100589.06;;;16.17;83.81
15817;BME280;8009;50.070;8.232;2022-10-28T09:25:41;100586.97;;;16.30;81.73
15817;BME280;8009;50.070;8.232;2022-10-28T09:28:27;100594.47;;;16.47;80.40
15817;BME280;8009;50.070;8.232;2022-10-28T09:31:04;100584.53;;;16.37;82.31
15817;BME280;8009;50.070;8.232;2022-10-28T09:33:45;100585.72;;;16.44;82.00
15817;BME280;8009;50.070;8.232;2022-10-28T09:36:21;100578.53;;;16.43;81.29
15817;BME280;8009;50.070;8.232;2022-10-28T09:38:53;100570.38;;;16.43;81.42
15817;BME280;8009;50.070;8.232;2022-10-28T09:41:25;100575.97;;;16.51;80.42
15817;BME280;8009;50.070;8.232;2022-10-28T09:43:58;100586.91;;;16.61;79.86
15817;BME280;8009;50.070;8.232;2022-10-28T09:46:34;100586.56;;;16.44;81.26
15817;BME280;8009;50.070;8.232;2022-10-28T09:49:04;100582.88;;;16.55;80.66
15817;BME280;8009;50.070;8.232;2022-10-28T09:51:40;100589.06;;;16.57;80.80
15817;BME280;8009;50.070;8.232;2022-10-28T09:54:11;100589.75;;;16.49;80.66
15817;BME280;8009;50.070;8.232;2022-10-28T09:56:40;100587.56;;;16.43;80.56
15817;BME280;8009;50.070;8.232;2022-10-28T09:59:11;100586.13;;;16.39;80.70
15817;BME280;8009;50.070;8.232;2022-10-28T10:01:43;100588.75;;;16.50;80.97
15817;BME280;8009;50.070;8.232;2022-10-28T10:04:17;100588.19;;;16.56;81.32
15817;BME280;8009;50.070;8.232;2022-10-28T10:06:49;100593.06;;;16.63;80.02
15817;BME280;8009;50.070;8.232;2022-10-28T10:09:22;100592.06;;;16.54;80.64
15817;BME280;8009;50.070;8.232;2022-10-28T10:11:54;100600.38;;;16.62;80.26
15817;BME280;8009;50.070;8.232;2022-10-28T10:14:27;100590.84;;;16.77;79.35
15817;BME280;8009;50.070;8.232;2022-10-28T10:17:02;100591.41;;;16.81;77.91
15817;BME280;8009;50.070;8.232;2022-10-28T10:19:56;100578.59;;;16.72;79.34
15817;BME280;8009;50.070;8.232;2022-10-28T10:22:28;100575.63;;;16.85;78.13
15817;BME280;8009;50.070;8.232;2022-10-28T10:24:57;100578.34;;;16.85;77.86
15817;BME280;8009;50.070;8.232;2022-10-28T10:27:26;100582.81;;;16.76;78.28
15817;BME280;8009;50.070;8.232;2022-10-28T10:29:56;100579.47;;;16.72;79.25
15817;BME280;8009;50.070;8.232;2022-10-28T10:32:30;100573.19;;;16.91;77.39
15817;BME280;8009;50.070;8.232;2022-10-28T10:35:13;100571.75;;;16.97;77.02
15817;BME280;8009;50.070;8.232;2022-10-28T10:37:47;100573.63;;;16.96;77.63
15817;BME280;8009;50.070;8.232;2022-10-28T10:40:22;100569.72;;;17.09;77.29
15817;BME280;8009;50.070;8.232;2022-10-28T10:42:52;100565.13;;;17.09;77.05
15817;BME280;8009;50.070;8.232;2022-10-28T10:45:23;100558.22;;;17.24;76.21
15817;BME280;8009;50.070;8.232;2022-10-28T10:48:10;100563.00;;;17.22;76.04
15817;BME280;8009;50.070;8.232;2022-10-28T10:50:41;100551.91;;;17.24;76.62
15817;BME280;8009;50.070;8.232;2022-10-28T10:53:22;100551.91;;;17.34;76.10
15817;BME280;8009;50.070;8.232;2022-10-28T10:55:56;100559.94;;;17.45;75.47
15817;BME280;8009;50.070;8.232;2022-10-28T10:58:28;100558.59;;;17.59;74.87
15817;BME280;8009;50.070;8.232;2022-10-28T11:00:59;100561.19;;;17.60;74.72
15817;BME280;8009;50.070;8.232;2022-10-28T11:03:34;100549.25;;;17.71;73.90
15817;BME280;8009;50.070;8.232;2022-10-28T11:06:05;100543.97;;;17.60;73.68
15817;BME280;8009;50.070;8.232;2022-10-28T11:08:37;100548.13;;;17.54;73.97
15817;BME280;8009;50.070;8.232;2022-10-28T11:11:10;100543.63;;;17.63;75.20
15817;BME280;8009;50.070;8.232;2022-10-28T11:13:40;100547.25;;;17.63;75.09
15817;BME280;8009;50.070;8.232;2022-10-28T11:16:17;100538.56;;;17.87;73.81
15817;BME280;8009;50.070;8.232;2022-10-28T11:18:50;100535.44;;;17.72;74.97
15817;BME280;8009;50.070;8.232;2022-10-28T11:21:44;100530.81;;;17.83;74.55
15817;BME280;8009;50.070;8.232;2022-10-28T11:24:30;100520.00;;;17.91;74.47
15817;BME280;8009;50.070;8.232;2022-10-28T11:27:13;100509.72;;;18.02;73.97
15817;BME280;8009;50.070;8.232;2022-10-28T11:29:43;100503.00;;;17.97;74.64
15817;BME280;8009;50.070;8.232;2022-10-28T11:32:21;100505.38;;;17.82;73.87
15817;BME280;8009;50.070;8.232;2022-10-28T11:37:57;100500.50;;;17.76;75.07
15817;BME280;8009;50.070;8.232;2022-10-28T11:40:36;100505.38;;;17.82;75.25
15817;BME280;8009;50.070;8.232;2022-10-28T11:43:18;100500.25;;;17.97;74.10
15817;BME280;8009;50.070;8.232;2022-10-28T11:45:58;100490.81;;;17.91;74.03
15817;BME280;8009;50.070;8.232;2022-10-28T11:48:50;100499.72;;;17.93;73.39
15817;BME280;8009;50.070;8.232;2022-10-28T11:51:31;100495.00;;;18.13;73.28
15817;BME280;8009;50.070;8.232;2022-10-28T11:54:21;100494.03;;;18.05;75.36
15817;BME280;8009;50.070;8.232;2022-10-28T11:56:58;100491.72;;;17.82;72.45
15817;BME280;8009;50.070;8.232;2022-10-28T11:59:45;100483.53;;;17.72;76.47
15817;BME280;8009;50.070;8.232;2022-10-28T12:02:29;100484.28;;;17.65;74.21
15817;BME280;8009;50.070;8.232;2022-10-28T12:05:04;100482.00;;;17.60;73.61
15817;BME280;8009;50.070;8.232;2022-10-28T12:07:58;100485.50;;;17.43;74.07
15817;BME280;8009;50.070;8.232;2022-10-28T12:10:38;100479.50;;;17.86;76.23
15817;BME280;8009;50.070;8.232;2022-10-28T12:13:18;100475.50;;;17.34;73.83
15817;BME280;8009;50.070;8.232;2022-10-28T12:15:55;100479.63;;;17.38;73.46
15817;BME280;8009;50.070;8.232;2022-10-28T12:18:31;100481.13;;;17.22;74.10
15817;BME280;8009;50.070;8.232;2022-10-28T12:21:06;100475.44;;;17.43;76.61
15817;BME280;8009;50.070;8.232;2022-10-28T12:23:43;100473.66;;;17.62;76.81
15817;BME280;8009;50.070;8.232;2022-10-28T12:26:15;100476.94;;;18.02;74.48
15817;BME280;8009;50.070;8.232;2022-10-28T12:28:48;100464.41;;;17.72;75.55
15817;BME280;8009;50.070;8.232;2022-10-28T12:31:21;100471.16;;;17.78;76.00
15817;BME280;8009;50.070;8.232;2022-10-28T12:33:54;100453.50;;;18.00;73.10
15817;BME280;8009;50.070;8.232;2022-10-28T12:36:30;100446.91;;;17.28;74.35
15817;BME280;8009;50.070;8.232;2022-10-28T12:39:08;100452.25;;;17.94;76.25
15817;BME280;8009;50.070;8.232;2022-10-28T12:41:45;100450.50;;;17.66;72.48
15817;BME280;8009;50.070;8.232;2022-10-28T12:44:18;100451.78;;;17.71;77.10
15817;BME280;8009;50.070;8.232;2022-10-28T12:46:54;100443.03;;;17.68;73.16
15817;BME280;8009;50.070;8.232;2022-10-28T12:49:34;100448.06;;;17.63;75.90
15817;BME280;8009;50.070;8.232;2022-10-28T12:52:18;100448.56;;;17.86;76.50
15817;BME280;8009;50.070;8.232;2022-10-28T12:54:57;100456.06;;;17.74;74.50
15817;BME280;8009;50.070;8.232;2022-10-28T12:57:29;100461.34;;;17.85;75.18
15817;BME280;8009;50.070;8.232;2022-10-28T13:00:05;100449.22;;;17.97;75.35
15817;BME280;8009;50.070;8.232;2022-10-28T13:02:38;100443.69;;;18.07;74.91
15817;BME280;8009;50.070;8.232;2022-10-28T13:05:16;100454.78;;;17.78;72.96
15817;BME280;8009;50.070;8.232;2022-10-28T13:08:01;100446.50;;;17.97;73.61
15817;BME280;8009;50.070;8.232;2022-10-28T13:10:39;100456.97;;;18.02;71.86
15817;BME280;8009;50.070;8.232;2022-10-28T13:13:23;100457.31;;;18.17;73.24
15817;BME280;8009;50.070;8.232;2022-10-28T13:19:26;100449.72;;;18.11;75.37
15817;BME280;8009;50.070;8.232;2022-10-28T13:22:11;100450.09;;;18.16;72.02
15817;BME280;8009;50.070;8.232;2022-10-28T13:24:50;100446.63;;;17.96;72.83
15817;BME280;8009;50.070;8.232;2022-10-28T13:27:24;100452.66;;;17.99;71.98
15817;BME280;8009;50.070;8.232;2022-10-28T13:29:55;100449.19;;;18.25;73.41
15817;BME280;8009;50.070;8.232;2022-10-28T13:32:30;100443.19;;;18.39;72.82
15817;BME280;8009;50.070;8.232;2022-10-28T13:35:00;100442.41;;;18.47;72.83
15817;BME280;8009;50.070;8.232;2022-10-28T13:37:37;100438.41;;;18.41;72.01
15817;BME280;8009;50.070;8.232;2022-10-28T13:40:20;100424.66;;;18.33;72.91
15817;BME280;8009;50.070;8.232;2022-10-28T13:42:51;100423.41;;;18.45;70.40